Time;durP1;ratioP1;P1;durP2;ratioP2;P2;SDS_P1;SDS_P2;PMS_P1;PMS_P2;Temp;Humidity;BMP_temperature;BMP_pressure;BME280_temperature;BME280_humidity;BME280_pressure;Samples;Min_cycle;Max_cycle;Signal;HPM_P1;HPM_P2
2022/11/22 00:00:39;;;;;;;4.28;3.45;;;;;;;3.34;95.47;148503.72;1714371;83;21135;-63
2022/11/22 00:03:07;;;;;;;6.75;4.00;;;;;;;3.31;95.62;148497.25;1714212;83;21027;-64
2022/11/22 00:05:34;;;;;;;4.72;3.45;;;;;;;3.30;95.72;148494.67;1714141;83;21487;-64
2022/11/22 00:08:02;;;;;;;4.83;3.30;;;;;;;3.28;95.69;148490.78;1714256;83;21061;-64
2022/11/22 00:10:28;;;;;;;6.25;3.70;;;;;;;3.28;95.53;148489.50;1714335;83;21067;-64
2022/11/22 00:12:55;;;;;;;4.47;3.45;;;;;;;3.25;95.71;148481.77;1714288;83;21203;-64
2022/11/22 00:15:22;;;;;;;3.98;3.20;;;;;;;3.25;95.96;148481.77;1714064;83;20857;-64
2022/11/22 00:17:50;;;;;;;4.70;3.67;;;;;;;3.29;96.12;148492.09;1714269;82;21448;-64
2022/11/22 00:20:17;;;;;;;4.28;3.40;;;;;;;3.30;96.28;148495.92;1714178;82;20915;-64
2022/11/22 00:22:44;;;;;;;9.58;3.72;;;;;;;3.36;96.65;148510.14;1714242;83;20964;-64
2022/11/22 00:25:11;;;;;;;7.03;3.58;;;;;;;3.42;96.77;148525.61;1714321;83;21173;-64
2022/11/22 00:27:38;;;;;;;5.12;3.80;;;;;;;3.48;96.58;148538.56;1714327;82;21518;-64
2022/11/22 00:30:07;;;;;;;5.90;3.85;;;;;;;3.48;96.17;148539.81;1714235;83;21444;-64
2022/11/22 00:32:34;;;;;;;4.72;3.60;;;;;;;3.43;95.89;148528.23;1714173;82;21478;-64
2022/11/22 00:35:02;;;;;;;5.70;3.98;;;;;;;3.40;95.90;148520.45;1714295;83;21017;-64
2022/11/22 00:37:29;;;;;;;6.03;4.22;;;;;;;3.38;95.96;148515.30;1714302;83;21416;-64
2022/11/22 00:39:56;;;;;;;5.28;3.92;;;;;;;3.34;95.81;148504.97;1714198;82;20951;-64
2022/11/22 00:42:23;;;;;;;4.97;3.83;;;;;;;3.31;95.68;148497.25;1714200;83;20971;-64
2022/11/22 00:44:51;;;;;;;4.87;3.87;;;;;;;3.27;95.70;148488.19;1714158;83;21536;-64
2022/11/22 00:47:18;;;;;;;5.70;4.22;;;;;;;3.22;95.56;148474.03;1714217;82;21024;-63
2022/11/22 00:49:46;;;;;;;6.00;4.65;;;;;;;3.17;95.68;148461.09;1692276;83;20974;-63
2022/11/22 00:52:13;;;;;;;6.37;4.30;;;;;;;3.15;95.94;148458.52;1714059;82;21016;-64
2022/11/22 00:54:41;;;;;;;5.37;4.30;;;;;;;3.13;96.12;148453.36;1714242;83;20943;-63
2022/11/22 00:57:08;;;;;;;6.25;4.33;;;;;;;3.12;96.42;148450.78;1714257;83;21424;-64
2022/11/22 00:59:34;;;;;;;5.12;3.87;;;;;;;3.10;96.55;148445.62;1714205;82;21014;-65
2022/11/22 01:02:01;;;;;;;7.22;4.10;;;;;;;3.11;96.71;148446.94;1714505;83;21138;-63
2022/11/22 01:04:28;;;;;;;5.75;4.00;;;;;;;3.10;96.64;148444.36;1714160;83;21007;-64
2022/11/22 01:06:56;;;;;;;4.80;3.72;;;;;;;3.07;96.69;148437.89;1714320;82;21448;-64
2022/11/22 01:09:22;;;;;;;5.83;4.08;;;;;;;3.09;96.94;148443.05;1714430;82;20919;-64
2022/11/22 01:11:50;;;;;;;5.28;4.15;;;;;;;3.10;96.85;148445.62;1714097;83;21562;-64
2022/11/22 01:14:17;;;;;;;5.78;4.08;;;;;;;3.11;96.88;148448.20;1714225;83;21478;-64
2022/11/22 01:16:44;;;;;;;6.17;4.35;;;;;;;3.09;96.77;148443.05;1714326;83;21007;-64
2022/11/22 01:19:11;;;;;;;6.25;4.40;;;;;;;3.09;96.83;148443.05;1714190;83;21082;-64
2022/11/22 01:21:38;;;;;;;5.80;3.62;;;;;;;3.11;97.11;148448.20;1714217;82;20979;-64
2022/11/22 01:24:06;;;;;;;5.60;4.25;;;;;;;3.13;97.04;148452.09;1714274;82;21027;-64
2022/11/22 01:26:33;;;;;;;6.62;4.05;;;;;;;3.11;96.86;148446.94;1714399;83;20947;-64
2022/11/22 01:29:00;;;;;;;5.40;4.30;;;;;;;3.08;96.78;148440.47;1714084;82;21345;-64
2022/11/22 01:31:28;;;;;;;5.60;4.00;;;;;;;3.05;96.93;148432.73;1714147;82;20963;-64
2022/11/22 01:33:56;;;;;;;5.55;3.72;;;;;;;3.01;96.52;148422.42;1714251;83;21432;-64
2022/11/22 01:36:24;;;;;;;4.92;3.58;;;;;;;2.94;96.24;148404.33;1714470;83;20943;-64
2022/11/22 01:38:51;;;;;;;5.42;3.70;;;;;;;2.86;96.18;148386.28;1714357;83;22063;-64
2022/11/22 01:41:19;;;;;;;5.62;4.00;;;;;;;2.80;96.09;148370.81;1714152;82;21058;-64
2022/11/22 01:43:46;;;;;;;5.45;3.87;;;;;;;2.73;95.96;148352.72;1714208;83;21476;-65
2022/11/22 01:46:27;;;;;;;4.70;3.65;;;;;;;2.65;95.93;148332.11;1714234;83;20986;-64
2022/11/22 01:49:05;;;;;;;4.15;3.40;;;;;;;2.56;95.97;148311.48;1714462;83;21472;-65
2022/11/22 01:51:41;;;;;;;5.95;3.95;;;;;;;2.48;96.14;148290.83;1713668;82;21186;-65
2022/11/22 01:54:11;;;;;;;6.95;3.90;;;;;;;2.39;96.37;148267.63;1714533;83;20968;-64
2022/11/22 01:56:38;;;;;;;5.05;3.47;;;;;;;2.34;96.70;148254.75;1714310;83;20975;-64
2022/11/22 01:59:09;;;;;;;5.22;3.65;;;;;;;2.29;96.98;148244.39;1714281;83;21019;-64
2022/11/22 02:01:36;;;;;;;6.45;3.83;;;;;;;2.27;97.21;148239.25;1714196;82;21065;-64
2022/11/22 02:04:03;;;;;;;5.20;3.33;;;;;;;2.24;97.45;148231.52;1691705;83;21254;-64
2022/11/22 02:06:41;;;;;;;5.37;4.00;;;;;;;2.22;97.68;148226.36;1714028;83;20995;-64
2022/11/22 02:09:11;;;;;;;7.37;3.95;;;;;;;2.17;97.81;148213.47;1711015;83;21015;-62
2022/11/22 02:11:43;;;;;;;4.92;3.45;;;;;;;2.12;98.05;148200.59;1714221;83;20935;-62
2022/11/22 02:14:10;;;;;;;4.87;3.60;;;;;;;2.09;98.27;148194.13;1714382;82;21011;-62
2022/11/22 02:16:37;;;;;;;6.95;3.72;;;;;;;2.07;98.54;148187.67;1714386;83;21141;-64
2022/11/22 02:19:05;;;;;;;5.47;3.83;;;;;;;2.06;98.77;148185.09;1714010;83;20956;-64
2022/11/22 02:21:32;;;;;;;3.77;3.22;;;;;;;2.05;98.94;148182.52;1714192;83;20936;-63
2022/11/22 02:24:19;;;;;;;6.10;3.70;;;;;;;2.05;99.17;148183.83;1714132;83;21018;-62
2022/11/22 02:26:46;;;;;;;5.65;3.92;;;;;;;2.05;99.27;148182.52;1713097;82;21010;-64
2022/11/22 02:29:13;;;;;;;4.95;3.77;;;;;;;2.02;99.27;148174.78;1691818;83;21148;-64
2022/11/22 02:31:44;;;;;;;5.15;3.70;;;;;;;2.00;99.32;148172.22;1691982;83;20986;-64
2022/11/22 02:34:12;;;;;;;6.10;3.90;;;;;;;1.95;99.35;148159.33;1714089;83;20904;-64
2022/11/22 02:36:48;;;;;;;5.50;4.05;;;;;;;1.92;99.48;148151.59;1714173;83;20991;-64
2022/11/22 02:39:19;;;;;;;5.67;3.95;;;;;;;1.90;99.58;148145.14;1714308;83;21094;-64
2022/11/22 02:41:45;;;;;;;6.20;4.37;;;;;;;1.88;99.73;148139.98;1714389;83;21111;-64
2022/11/22 02:44:13;;;;;;;7.33;4.42;;;;;;;1.84;99.86;148130.95;1714120;83;20983;-64
2022/11/22 02:46:53;;;;;;;5.85;4.10;;;;;;;1.80;100.00;148120.64;1714236;82;20951;-64
2022/11/22 02:49:23;;;;;;;6.17;3.85;;;;;;;1.77;100.00;148112.92;1714318;82;21063;-64
2022/11/22 02:51:50;;;;;;;5.40;3.87;;;;;;;1.73;100.00;148102.63;1714263;82;20986;-64
2022/11/22 02:54:17;;;;;;;6.12;4.05;;;;;;;1.70;100.00;148097.47;1714068;83;21380;-64
2022/11/22 02:56:46;;;;;;;5.50;3.62;;;;;;;1.69;100.00;148094.89;1714008;83;20994;-64
2022/11/22 02:59:13;;;;;;;11.10;3.92;;;;;;;1.65;100.00;148084.55;1714328;83;20951;-64
2022/11/22 03:01:40;;;;;;;10.53;4.33;;;;;;;1.64;100.00;148080.70;1714225;83;20943;-62
2022/11/22 03:04:07;;;;;;;5.72;4.05;;;;;;;1.60;100.00;148071.66;1714195;83;20994;-65
2022/11/22 03:06:35;;;;;;;6.40;3.90;;;;;;;1.57;100.00;148065.25;1714111;83;21225;-64
2022/11/22 03:09:02;;;;;;;5.55;4.00;;;;;;;1.55;100.00;148060.11;1714107;82;20972;-64
2022/11/22 03:11:29;;;;;;;5.62;3.72;;;;;;;1.52;100.00;148051.06;1714242;83;21464;-64
2022/11/22 03:13:57;;;;;;;6.35;4.28;;;;;;;1.52;100.00;148051.06;1714288;83;20919;-64
2022/11/22 03:16:24;;;;;;;6.70;4.37;;;;;;;1.47;100.00;148039.45;1714055;83;21002;-63
2022/11/22 03:18:50;;;;;;;7.40;4.53;;;;;;;1.43;100.00;148030.42;1714154;82;21417;-64
2022/11/22 03:21:18;;;;;;;7.25;4.75;;;;;;;1.41;100.00;148025.27;1714132;82;21040;-64
2022/11/22 03:23:44;;;;;;;7.05;4.67;;;;;;;1.39;100.00;148020.13;1714201;83;20880;-64
2022/11/22 03:26:12;;;;;;;7.85;5.00;;;;;;;1.37;100.00;148013.72;1714301;83;21066;-63
2022/11/22 03:28:39;;;;;;;6.87;4.15;;;;;;;1.34;100.00;148007.25;1714346;83;20923;-64
2022/11/22 03:31:06;;;;;;;7.53;4.65;;;;;;;1.32;100.00;148002.09;1714259;83;21194;-64
2022/11/22 03:33:34;;;;;;;8.13;4.83;;;;;;;1.30;100.00;147996.95;1714259;83;20896;-64
2022/11/22 03:36:02;;;;;;;7.95;5.17;;;;;;;1.26;100.00;147987.91;1714287;82;21001;-62
2022/11/22 03:38:30;;;;;;;8.23;5.42;;;;;;;1.23;100.00;147980.19;1714339;83;20971;-62
2022/11/22 03:40:57;;;;;;;8.08;5.17;;;;;;;1.22;100.00;147976.36;1714306;83;21506;-62
2022/11/22 03:43:23;;;;;;;9.58;4.83;;;;;;;1.20;100.00;147971.16;1714277;83;21152;-64
2022/11/22 03:45:50;;;;;;;7.15;4.92;;;;;;;1.20;100.00;147971.16;1714406;82;20852;-63
2022/11/22 03:48:18;;;;;;;6.58;4.53;;;;;;;1.20;100.00;147971.16;1714243;83;21034;-64
2022/11/22 03:50:45;;;;;;;6.75;4.47;;;;;;;1.20;100.00;147971.16;1714287;83;20986;-63
2022/11/22 03:53:12;;;;;;;8.35;5.17;;;;;;;1.20;100.00;147971.16;1714123;83;21053;-65
2022/11/22 03:55:38;;;;;;;9.30;5.22;;;;;;;1.18;100.00;147966.02;1714219;83;21194;-65
2022/11/22 03:58:06;;;;;;;10.05;5.55;;;;;;;1.12;100.00;147953.14;1714065;83;21046;-63
2022/11/22 04:00:33;;;;;;;10.15;5.50;;;;;;;1.10;100.00;147947.98;1714395;82;21443;-64
2022/11/22 04:03:00;;;;;;;10.53;5.72;;;;;;;1.06;100.00;147937.69;1714190;83;21031;-64
2022/11/22 04:05:27;;;;;;;8.80;5.53;;;;;;;1.05;100.00;147935.13;1714118;83;20975;-64
2022/11/22 04:07:58;;;;;;;7.97;5.37;;;;;;;1.07;100.00;147940.27;1714397;83;21062;-64
2022/11/22 04:10:25;;;;;;;9.40;5.53;;;;;;;1.06;100.00;147936.37;1714368;83;20932;-64
2022/11/22 04:12:57;;;;;;;7.97;5.00;;;;;;;1.05;100.00;147933.81;1714478;83;20983;-64
2022/11/22 04:15:25;;;;;;;9.35;5.65;;;;;;;1.01;100.00;147924.83;1714372;83;20939;-62
2022/11/22 04:17:54;;;;;;;8.05;5.40;;;;;;;0.97;100.00;147914.48;1714209;83;21370;-63
2022/11/22 04:23:20;;;;;;;9.33;5.80;;;;;;;0.92;100.00;147902.92;1714228;83;20944;-64
2022/11/22 04:25:49;;;;;;;10.10;6.00;;;;;;;0.90;100.00;147897.78;1714323;83;21129;-61
2022/11/22 04:28:18;;;;;;;9.48;5.65;;;;;;;0.89;100.00;147893.89;1714202;83;21035;-62
2022/11/22 04:33:31;;;;;;;9.83;5.42;;;;;;;0.90;100.00;147897.78;1714195;83;21134;-64
2022/11/22 04:35:59;;;;;;;11.03;6.37;;;;;;;0.89;100.00;147893.89;1714266;82;21462;-64
2022/11/22 04:38:26;;;;;;;10.90;6.28;;;;;;;0.84;100.00;147883.59;1714228;82;21046;-64
2022/11/22 04:40:52;;;;;;;10.20;6.53;;;;;;;0.81;100.00;147874.56;1714192;83;21423;-64
2022/11/22 04:46:14;;;;;;;12.68;6.42;;;;;;;0.73;100.00;147855.25;1714391;83;20903;-65
2022/11/22 04:48:41;;;;;;;10.80;6.70;;;;;;;0.68;100.00;147842.38;1714313;83;21025;-63
2022/11/22 04:53:57;;;;;;;10.50;6.53;;;;;;;0.63;100.00;147829.52;1695509;83;21043;-63
2022/11/22 04:56:23;;;;;;;11.53;6.72;;;;;;;0.60;100.00;147823.05;1714232;83;21074;-65
2022/11/22 04:58:51;;;;;;;14.18;7.92;;;;;;;0.58;100.00;147816.64;1714324;83;21838;-65
2022/11/22 05:01:17;;;;;;;13.10;7.53;;;;;;;0.56;100.00;147814.08;1714138;83;21019;-65
2022/11/22 05:03:45;;;;;;;12.55;7.42;;;;;;;0.55;100.00;147811.50;1714081;83;21489;-62
2022/11/22 05:06:13;;;;;;;12.40;7.40;;;;;;;0.57;100.00;147815.34;1714055;83;20943;-63
2022/11/22 05:08:41;;;;;;;12.58;7.20;;;;;;;0.59;100.00;147819.22;1714318;83;21487;-62
2022/11/22 05:11:09;;;;;;;13.85;7.58;;;;;;;0.59;100.00;147819.22;1714457;83;21063;-63
2022/11/22 05:13:40;;;;;;;13.43;7.17;;;;;;;0.59;100.00;147819.22;1714135;83;20935;-64
2022/11/22 05:16:11;;;;;;;12.13;7.25;;;;;;;0.58;100.00;147816.64;1714478;83;20975;-63
2022/11/22 05:18:38;;;;;;;11.18;6.97;;;;;;;0.56;100.00;147814.08;1714224;83;21070;-65
2022/11/22 05:21:11;;;;;;;14.00;7.72;;;;;;;0.56;100.00;147814.08;1714328;82;21425;-64
2022/11/22 05:23:53;;;;;;;10.63;6.40;;;;;;;0.56;100.00;147812.77;1714382;83;21246;-63
2022/11/22 05:26:30;;;;;;;12.10;7.10;;;;;;;0.55;100.00;147811.50;1714153;83;20987;-63
2022/11/22 05:28:57;;;;;;;10.20;6.03;;;;;;;0.56;100.00;147814.08;1714117;83;21372;-65
2022/11/22 05:31:26;;;;;;;12.63;7.17;;;;;;;0.59;100.00;147819.22;1714283;83;20947;-64
2022/11/22 05:33:55;;;;;;;12.15;7.37;;;;;;;0.60;100.00;147823.05;1714235;83;20927;-64
2022/11/22 05:36:23;;;;;;;12.37;7.35;;;;;;;0.62;100.00;147826.94;1714172;83;21099;-65
2022/11/22 05:38:50;;;;;;;11.60;7.42;;;;;;;0.65;100.00;147835.92;1713946;83;21067;-65
2022/11/22 05:41:17;;;;;;;10.13;6.83;;;;;;;0.76;100.00;147862.97;1714197;83;21015;-65
2022/11/22 05:43:44;;;;;;;11.43;6.87;;;;;;;0.89;100.00;147893.89;1714114;82;21003;-65
2022/11/22 05:46:21;;;;;;;11.90;7.47;;;;;;;0.97;100.00;147914.48;1714067;83;21023;-64
2022/11/22 05:48:47;;;;;;;13.00;7.17;;;;;;;1.02;100.00;147926.09;1714569;82;21175;-63
2022/11/22 05:51:18;;;;;;;13.80;7.90;;;;;;;1.05;100.00;147935.13;1714141;83;21353;-64
2022/11/22 05:53:45;;;;;;;12.23;7.42;;;;;;;1.10;100.00;147946.69;1714081;82;21082;-64
2022/11/22 05:56:15;;;;;;;14.98;8.60;;;;;;;1.13;100.00;147955.72;1713867;82;21428;-64
2022/11/22 05:58:42;;;;;;;13.88;8.30;;;;;;;1.17;100.00;147963.44;1714088;82;21019;-64
2022/11/22 06:01:13;;;;;;;13.55;7.85;;;;;;;1.16;100.00;147962.17;1714228;83;21233;-64
2022/11/22 06:03:40;;;;;;;12.93;7.25;;;;;;;1.20;100.00;147971.16;1713988;82;21094;-63
2022/11/22 06:06:07;;;;;;;13.18;7.42;;;;;;;1.25;100.00;147984.08;1714135;83;21030;-63
2022/11/22 06:08:35;;;;;;;12.82;7.60;;;;;;;1.30;100.00;147996.95;1714097;83;21075;-64
2022/11/22 06:11:07;;;;;;;10.82;7.15;;;;;;;1.33;100.00;148004.67;1714222;83;21444;-64
2022/11/22 06:13:37;;;;;;;12.85;8.15;;;;;;;1.36;100.00;148011.14;1714127;83;22026;-65
2022/11/22 06:16:06;;;;;;;13.50;7.87;;;;;;;1.37;100.00;148014.97;1713883;82;21055;-64
2022/11/22 06:18:34;;;;;;;12.63;7.80;;;;;;;1.39;100.00;148020.13;1714110;83;21015;-63
2022/11/22 06:21:06;;;;;;;15.20;7.80;;;;;;;1.40;100.00;148022.69;1714176;83;20919;-63
2022/11/22 06:23:32;;;;;;;14.55;8.40;;;;;;;1.43;100.00;148030.42;1714057;83;20939;-63
2022/11/22 06:26:11;;;;;;;12.25;6.72;;;;;;;1.41;100.00;148025.27;1714256;83;21274;-63
2022/11/22 06:28:38;;;;;;;11.35;7.12;;;;;;;1.37;100.00;148014.97;1713282;83;20911;-65
2022/11/22 06:31:14;;;;;;;12.73;7.78;;;;;;;1.34;100.00;148005.98;1714228;83;21424;-63
2022/11/22 06:33:42;;;;;;;12.37;7.30;;;;;;;1.33;100.00;148004.67;1714244;83;21398;-65
2022/11/22 06:36:18;;;;;;;12.60;7.20;;;;;;;1.34;100.00;148005.98;1714176;83;21027;-65
2022/11/22 06:38:45;;;;;;;12.10;6.65;;;;;;;1.34;100.00;148007.25;1714210;83;21554;-64
2022/11/22 06:41:16;;;;;;;12.03;7.37;;;;;;;1.32;100.00;148000.78;1714080;82;20987;-63
2022/11/22 06:43:45;;;;;;;15.60;7.83;;;;;;;1.29;100.00;147994.38;1714158;83;21570;-64
2022/11/22 06:46:13;;;;;;;12.58;7.33;;;;;;;1.29;100.00;147995.64;1714056;83;21464;-63
2022/11/22 06:48:41;;;;;;;14.70;7.65;;;;;;;1.32;100.00;148002.09;1714200;83;21066;-63
2022/11/22 06:51:14;;;;;;;11.75;7.67;;;;;;;1.31;100.00;147999.53;1714327;83;21780;-66
2022/11/22 06:53:41;;;;;;;11.88;6.95;;;;;;;1.31;100.00;147999.53;1714124;83;20959;-63
2022/11/22 06:56:11;;;;;;;16.15;8.23;;;;;;;1.32;100.00;148000.78;1714260;83;21102;-64
2022/11/22 06:58:38;;;;;;;14.07;7.90;;;;;;;1.31;100.00;147999.53;1714246;83;20979;-64
2022/11/22 07:01:09;;;;;;;15.78;9.30;;;;;;;1.36;100.00;148012.39;1714386;82;20947;-63
2022/11/22 07:03:37;;;;;;;16.77;8.98;;;;;;;1.41;100.00;148024.00;1714153;83;21087;-63
2022/11/22 07:06:07;;;;;;;16.10;9.33;;;;;;;1.43;100.00;148030.42;1714163;83;21014;-63
2022/11/22 07:08:34;;;;;;;17.32;9.03;;;;;;;1.45;100.00;148034.31;1714312;82;20958;-63
2022/11/22 07:11:04;;;;;;;16.48;8.50;;;;;;;1.49;100.00;148043.34;1714374;83;21397;-64
2022/11/22 07:13:31;;;;;;;15.98;8.60;;;;;;;1.52;100.00;148051.06;1714464;83;21416;-66
2022/11/22 07:16:00;;;;;;;13.15;7.92;;;;;;;1.56;100.00;148061.37;1714093;83;22322;-66
2022/11/22 07:18:26;;;;;;;13.80;7.67;;;;;;;1.61;100.00;148074.23;1714389;83;21121;-65
2022/11/22 07:21:05;;;;;;;13.53;8.18;;;;;;;1.63;100.00;148078.13;1714233;83;21148;-65
2022/11/22 07:23:32;;;;;;;14.13;8.40;;;;;;;1.60;100.00;148071.66;1713915;83;21313;-66
2022/11/22 07:25:58;;;;;;;14.05;8.10;;;;;;;1.61;100.00;148074.23;1714150;82;21006;-66
2022/11/22 07:28:25;;;;;;;13.78;8.23;;;;;;;1.65;100.00;148083.28;1714143;83;21531;-66
2022/11/22 07:30:52;;;;;;;11.18;7.40;;;;;;;1.68;100.00;148092.31;1714277;83;21408;-66
2022/11/22 07:33:19;;;;;;;11.55;7.20;;;;;;;1.73;100.00;148103.88;1714344;83;21550;-66
2022/11/22 07:35:46;;;;;;;12.43;8.00;;;;;;;1.79;100.00;148118.06;1714202;82;20995;-66
2022/11/22 07:38:13;;;;;;;12.00;7.00;;;;;;;1.83;100.00;148128.38;1714359;82;20911;-66
2022/11/22 07:40:40;;;;;;;15.00;8.50;;;;;;;1.84;100.00;148130.95;1714318;83;21241;-66
2022/11/22 07:43:07;;;;;;;12.43;6.80;;;;;;;1.85;100.00;148133.53;1714239;83;21471;-65
2022/11/22 07:45:34;;;;;;;12.55;7.15;;;;;;;1.86;100.00;148137.41;1714235;83;21098;-65
2022/11/22 07:48:01;;;;;;;10.28;6.72;;;;;;;1.88;100.00;148141.30;1714155;82;21006;-67
2022/11/22 07:50:28;;;;;;;9.30;6.45;;;;;;;1.92;100.00;148151.59;1714245;83;21067;-65
2022/11/22 07:52:58;;;;;;;12.63;7.42;;;;;;;1.92;100.00;148151.59;1714371;83;21873;-65
2022/11/22 07:55:26;;;;;;;12.30;7.28;;;;;;;1.96;100.00;148161.91;1714228;83;20956;-68
2022/11/22 07:57:53;;;;;;;12.25;7.42;;;;;;;2.04;100.00;148179.94;1714335;83;20960;-65
2022/11/22 08:00:20;;;;;;;10.82;7.12;;;;;;;2.10;100.00;148196.70;1714313;83;21185;-67
2022/11/22 08:02:48;;;;;;;14.60;8.03;;;;;;;2.19;100.00;148218.62;1714299;83;20971;-67
2022/11/22 08:05:15;;;;;;;10.55;6.58;;;;;;;2.25;100.00;148234.09;1714284;83;22068;-67
2022/11/22 08:07:51;;;;;;;9.13;6.53;;;;;;;2.31;100.00;148248.28;1714279;83;21533;-65
2022/11/22 08:10:18;;;;;;;16.83;8.17;;;;;;;2.37;100.00;148262.48;1714791;83;21023;-67
2022/11/22 08:12:45;;;;;;;14.07;8.15;;;;;;;2.38;100.00;148265.06;1714311;83;21082;-66
2022/11/22 08:15:13;;;;;;;12.90;7.47;;;;;;;2.40;100.00;148270.20;1714248;83;21467;-66
2022/11/22 08:17:41;;;;;;;10.93;7.10;;;;;;;2.39;100.00;148268.89;1714173;83;21244;-66
2022/11/22 08:20:10;;;;;;;10.68;6.67;;;;;;;2.36;100.00;148259.91;1714209;83;21002;-65
2022/11/22 08:22:39;;;;;;;10.82;6.17;;;;;;;2.35;100.00;148258.59;1714147;83;21031;-65
2022/11/22 08:25:11;;;;;;;8.43;5.85;;;;;;;2.41;100.00;148274.05;1714305;83;21010;-65
2022/11/22 08:27:40;;;;;;;10.32;6.20;;;;;;;2.49;100.00;148293.41;1714386;83;21098;-65
2022/11/22 08:30:10;;;;;;;13.32;7.90;;;;;;;2.52;100.00;148301.13;1714276;83;21329;-65
2022/11/22 08:32:36;;;;;;;11.43;7.40;;;;;;;2.53;100.00;148303.70;1713669;82;21019;-66
2022/11/22 08:35:04;;;;;;;12.70;7.75;;;;;;;2.61;100.00;148321.80;1714338;83;21066;-66
2022/11/22 08:37:33;;;;;;;10.38;6.78;;;;;;;2.70;100.00;148345.00;1714213;83;20959;-65
2022/11/22 08:40:00;;;;;;;10.00;6.80;;;;;;;2.81;99.98;148373.41;1714168;82;21015;-66
2022/11/22 08:42:28;;;;;;;9.43;6.42;;;;;;;2.90;99.35;148394.02;1714167;83;21472;-65
2022/11/22 08:44:55;;;;;;;9.68;6.60;;;;;;;2.89;98.73;148391.44;1714363;83;20991;-65
2022/11/22 08:47:22;;;;;;;10.35;7.03;;;;;;;2.92;98.57;148399.17;1714232;83;21381;-65
2022/11/22 08:49:48;;;;;;;10.75;7.08;;;;;;;2.93;98.51;148401.75;1714167;82;21808;-65
2022/11/22 08:52:15;;;;;;;12.30;7.83;;;;;;;3.00;98.68;148419.84;1714359;82;20935;-65
2022/11/22 08:54:42;;;;;;;21.65;11.08;;;;;;;3.03;98.20;148427.58;1714265;83;21520;-65
2022/11/22 08:57:09;;;;;;;14.28;8.45;;;;;;;3.00;97.94;148419.84;1714111;83;20923;-65
2022/11/22 08:59:36;;;;;;;12.50;7.50;;;;;;;3.02;98.21;148425.00;1714247;83;21090;-65
2022/11/22 09:02:03;;;;;;;10.82;6.85;;;;;;;3.07;98.37;148436.58;1714268;83;21008;-65
2022/11/22 09:04:31;;;;;;;10.45;6.55;;;;;;;3.19;98.46;148466.25;1714349;82;21513;-65
2022/11/22 09:06:59;;;;;;;8.63;5.83;;;;;;;3.24;97.92;148479.19;1714190;83;21261;-67
2022/11/22 09:09:26;;;;;;;13.03;6.97;;;;;;;3.34;97.84;148503.72;1714118;83;21045;-65
2022/11/22 09:11:53;;;;;;;16.82;8.75;;;;;;;3.37;97.13;148512.72;1714229;82;20955;-65
2022/11/22 09:14:20;;;;;;;13.98;7.67;;;;;;;3.41;96.76;148523.03;1714121;83;21487;-64
2022/11/22 09:16:47;;;;;;;11.05;7.30;;;;;;;3.41;96.49;148523.03;1714153;83;21472;-66
2022/11/22 09:19:14;;;;;;;14.23;7.03;;;;;;;3.43;96.18;148528.23;1714163;83;21147;-66
2022/11/22 09:21:41;;;;;;;11.25;7.47;;;;;;;3.50;96.25;148543.72;1714227;82;20907;-66
2022/11/22 09:24:08;;;;;;;10.93;6.90;;;;;;;3.53;95.70;148552.72;1714196;83;20935;-64
2022/11/22 09:26:35;;;;;;;9.50;6.58;;;;;;;3.52;95.48;148548.87;1714031;82;21495;-66
2022/11/22 09:29:02;;;;;;;10.38;6.95;;;;;;;3.59;95.74;148566.92;1714266;83;21011;-64
2022/11/22 09:31:30;;;;;;;10.15;7.12;;;;;;;3.66;95.71;148585.03;1714162;83;21488;-63
2022/11/22 09:33:57;;;;;;;10.78;6.92;;;;;;;3.76;95.29;148608.25;1714404;83;21026;-64
2022/11/22 09:36:29;;;;;;;9.63;7.08;;;;;;;3.80;94.94;148619.88;1714194;82;21487;-64
2022/11/22 09:38:54;;;;;;;12.03;7.80;;;;;;;3.89;94.56;148640.52;1712973;83;21448;-64
2022/11/22 09:41:47;;;;;;;10.45;7.10;;;;;;;3.88;93.85;148639.25;1714370;82;20966;-64
2022/11/22 09:44:39;;;;;;;12.35;7.92;;;;;;;3.91;94.30;148646.98;1688665;83;21307;-65
2022/11/22 09:47:35;;;;;;;8.63;6.35;;;;;;;4.07;94.32;148685.69;1714309;82;20966;-65
2022/11/22 09:50:42;;;;;;;11.43;7.25;;;;;;;4.17;94.12;148711.53;1681693;83;20959;-64
2022/11/22 09:53:47;;;;;;;9.48;6.60;;;;;;;4.26;93.52;148733.50;1714018;83;21082;-64
2022/11/22 09:56:16;;;;;;;10.75;6.87;;;;;;;4.36;93.79;148758.05;1714290;83;21067;-64
2022/11/22 09:58:54;;;;;;;13.00;7.42;;;;;;;4.46;93.00;148783.84;1713923;83;21126;-64
2022/11/22 10:01:39;;;;;;;11.15;7.60;;;;;;;4.49;91.96;148790.33;1714086;82;21043;-65
2022/11/22 10:04:17;;;;;;;11.35;7.47;;;;;;;4.44;91.26;148780.00;1714239;83;21039;-65
2022/11/22 10:06:57;;;;;;;10.45;7.10;;;;;;;4.44;91.23;148778.69;1713512;83;21058;-64
2022/11/22 10:09:48;;;;;;;12.07;6.78;;;;;;;4.49;91.56;148791.59;1714143;83;21068;-64
2022/11/22 10:12:26;;;;;;;9.75;7.10;;;;;;;4.61;91.58;148821.30;1714119;82;22267;-63
2022/11/22 10:15:22;;;;;;;11.18;7.25;;;;;;;4.70;91.16;148843.27;1711428;83;21377;-65
2022/11/22 10:17:59;;;;;;;10.98;6.85;;;;;;;4.69;90.38;148840.69;1714247;83;21051;-65
2022/11/22 10:20:31;;;;;;;13.15;7.58;;;;;;;4.60;89.82;148818.72;1714111;82;21058;-64
2022/11/22 10:22:58;;;;;;;10.72;7.10;;;;;;;4.59;90.13;148817.45;1714341;83;20947;-64
2022/11/22 10:25:36;;;;;;;11.50;7.35;;;;;;;4.62;90.31;148822.63;1714223;83;21206;-64
2022/11/22 10:28:34;;;;;;;11.30;7.42;;;;;;;4.63;90.15;148826.47;1714209;83;20952;-64
2022/11/22 10:31:26;;;;;;;11.57;7.58;;;;;;;4.64;89.97;148829.09;1714170;83;21365;-66
2022/11/22 10:34:12;;;;;;;12.82;6.30;;;;;;;4.64;89.74;148827.78;1698481;83;20988;-66
2022/11/22 10:37:13;;;;;;;10.88;6.95;;;;;;;4.70;90.13;148844.58;1714392;83;21023;-65
2022/11/22 10:40:01;;;;;;;9.65;6.30;;;;;;;4.82;90.60;148874.30;1714121;83;21233;-64
2022/11/22 10:42:45;;;;;;;8.80;6.67;;;;;;;4.93;90.01;148900.12;1714191;83;21439;-64
2022/11/22 10:45:30;;;;;;;10.28;6.28;;;;;;;5.04;90.40;148927.25;1659792;83;21019;-65
2022/11/22 10:48:32;;;;;;;10.03;6.53;;;;;;;5.19;89.84;148964.72;1714241;82;21015;-66
2022/11/22 10:51:20;;;;;;;9.68;6.80;;;;;;;5.19;88.41;148966.03;1714241;82;20931;-64
2022/11/22 10:54:16;;;;;;;12.00;7.00;;;;;;;5.15;88.03;148956.97;1714184;82;21765;-67
2022/11/22 10:56:58;;;;;;;8.83;6.30;;;;;;;5.12;88.13;148947.97;1714152;82;20970;-66
2022/11/22 10:59:50;;;;;;;9.00;6.17;;;;;;;5.24;89.09;148978.95;1714230;82;21010;-66
2022/11/22 11:02:47;;;;;;;8.90;6.15;;;;;;;5.39;89.32;149016.42;1713063;83;20951;-66
2022/11/22 11:05:16;;;;;;;8.85;6.05;;;;;;;5.56;89.11;149057.80;1714311;82;21058;-64
2022/11/22 11:08:06;;;;;;;9.38;6.20;;;;;;;5.68;88.69;149088.84;1714182;83;21195;-67
2022/11/22 11:10:36;;;;;;;10.08;6.12;;;;;;;5.79;88.41;149114.69;1719898;83;20975;-66
2022/11/22 11:13:08;;;;;;;9.85;6.70;;;;;;;5.88;88.24;149138.00;1744183;81;20941;-67
2022/11/22 11:15:38;;;;;;;11.35;7.08;;;;;;;5.95;87.54;149156.08;1744967;81;21366;-67
2022/11/22 11:18:13;;;;;;;12.15;7.65;;;;;;;5.97;86.82;149159.97;1737816;82;21056;-65
2022/11/22 11:20:41;;;;;;;11.08;6.80;;;;;;;5.97;86.59;149161.25;1737888;82;22020;-65
2022/11/22 11:23:09;;;;;;;9.73;6.62;;;;;;;6.00;86.24;149169.00;1737995;82;21017;-67
2022/11/22 11:25:42;;;;;;;10.55;6.87;;;;;;;5.99;86.10;149166.41;1738092;82;21068;-65
2022/11/22 11:28:23;;;;;;;9.63;6.83;;;;;;;6.04;86.08;149176.80;1737864;82;20914;-65
2022/11/22 11:31:10;;;;;;;10.70;7.33;;;;;;;6.10;86.25;149193.63;1738143;82;21052;-66
2022/11/22 11:33:39;;;;;;;14.05;7.30;;;;;;;6.19;86.02;149215.62;1737988;82;21138;-65
2022/11/22 11:36:16;;;;;;;14.05;7.33;;;;;;;6.26;85.34;149233.70;1737883;82;20905;-67
2022/11/22 11:38:54;;;;;;;11.08;7.08;;;;;;;6.22;84.49;149223.37;1735708;82;21410;-66
2022/11/22 11:41:32;;;;;;;10.78;7.28;;;;;;;6.23;84.64;149224.69;1738001;82;21454;-65
2022/11/22 11:44:02;;;;;;;11.53;7.30;;;;;;;6.28;84.77;149238.88;1738248;82;20941;-64
2022/11/22 11:46:42;;;;;;;10.70;7.55;;;;;;;6.36;84.69;149257.02;1738055;82;21067;-65
2022/11/22 11:49:14;;;;;;;12.82;8.53;;;;;;;6.46;83.92;149282.88;1717634;82;20937;-65
2022/11/22 11:51:47;;;;;;;12.43;8.53;;;;;;;6.46;83.92;149282.88;1737959;82;20918;-67